createdAt,value
2024-03-16T00:00:15.909Z,81.00
2024-03-16T00:00:25.370Z,81.20
2024-03-16T00:00:34.718Z,81.10
2024-03-16T00:00:44.120Z,81.20
2024-03-16T00:00:53.690Z,81.20
2024-03-16T00:01:03.004Z,81.10
2024-03-16T00:01:21.815Z,81.20
2024-03-16T00:01:31.317Z,81.20
2024-03-16T00:01:40.716Z,81.20
2024-03-16T00:01:50.118Z,81.10
2024-03-16T00:01:59.529Z,81.00
2024-03-16T00:02:08.906Z,81.10
2024-03-16T00:02:27.703Z,81.10
2024-03-16T00:02:37.065Z,81.10
2024-03-16T00:02:46.466Z,81.20
2024-03-16T00:02:55.883Z,81.20
2024-03-16T00:03:05.415Z,81.30
2024-03-16T00:03:14.816Z,81.30
2024-03-16T00:03:33.684Z,81.40
2024-03-16T00:03:43.145Z,81.30
2024-03-16T00:03:52.524Z,81.20
2024-03-16T00:04:01.908Z,81.20
2024-03-16T00:04:11.530Z,81.20
2024-03-16T00:04:20.767Z,81.30
2024-03-16T00:04:39.567Z,81.20
2024-03-16T00:04:48.977Z,81.20
2024-03-16T00:04:58.382Z,81.10
2024-03-16T00:05:07.831Z,81.20
2024-03-16T00:05:17.191Z,81.20
2024-03-16T00:05:26.622Z,81.20
2024-03-16T00:05:45.436Z,81.10
2024-03-16T00:05:54.881Z,81.00
2024-03-16T00:06:04.269Z,81.00
2024-03-16T00:06:13.671Z,81.00
2024-03-16T00:06:23.171Z,81.00
2024-03-16T00:06:32.606Z,81.00
2024-03-16T00:06:51.561Z,81.00
2024-03-16T00:07:00.972Z,81.00
2024-03-16T00:07:10.401Z,81.00
2024-03-16T00:07:19.736Z,80.90
2024-03-16T00:07:29.142Z,80.90
2024-03-16T00:07:38.566Z,80.90
2024-03-16T00:07:57.560Z,80.90
2024-03-16T00:08:06.974Z,81.00
2024-03-16T00:08:16.383Z,81.00
2024-03-16T00:08:25.796Z,81.00
2024-03-16T00:08:35.198Z,81.00
2024-03-16T00:08:44.608Z,81.00
2024-03-16T00:09:03.434Z,81.00
2024-03-16T00:09:12.980Z,80.90
2024-03-16T00:09:22.381Z,80.80
2024-03-16T00:09:31.848Z,80.90
2024-03-16T00:09:41.270Z,80.90
2024-03-16T00:09:50.765Z,80.90
2024-03-16T00:10:09.763Z,80.90
2024-03-16T00:10:19.108Z,80.90
2024-03-16T00:10:28.524Z,80.90
2024-03-16T00:10:37.965Z,80.90
2024-03-16T00:10:47.653Z,80.90
2024-03-16T00:10:57.188Z,80.90
2024-03-16T00:11:15.829Z,80.90
2024-03-16T00:11:25.285Z,80.90
2024-03-16T00:11:34.652Z,80.90
2024-03-16T00:11:44.064Z,80.90
2024-03-16T00:11:53.509Z,80.90
2024-03-16T00:12:02.873Z,80.80
2024-03-16T00:12:21.816Z,80.90
2024-03-16T00:12:31.277Z,80.90
2024-03-16T00:12:40.634Z,80.90
2024-03-16T00:12:50.053Z,80.90
2024-03-16T00:12:59.513Z,80.90
2024-03-16T00:13:08.952Z,80.90
2024-03-16T00:13:27.650Z,81.00
2024-03-16T00:13:37.094Z,80.90
2024-03-16T00:13:46.501Z,81.00
2024-03-16T00:13:55.894Z,81.00
2024-03-16T00:14:05.316Z,81.00
2024-03-16T00:14:14.697Z,81.00
2024-03-16T00:14:33.509Z,81.00
2024-03-16T00:14:42.916Z,81.00
2024-03-16T00:14:52.312Z,81.10
2024-03-16T00:15:01.713Z,81.00
2024-03-16T00:15:11.122Z,81.00
2024-03-16T00:15:20.508Z,81.00
2024-03-16T00:15:39.378Z,80.90
2024-03-16T00:15:48.811Z,80.90
2024-03-16T00:15:58.129Z,80.90
2024-03-16T00:16:07.785Z,80.90
2024-03-16T00:16:16.997Z,80.90
2024-03-16T00:16:26.397Z,80.90
2024-03-16T00:16:45.187Z,80.90
2024-03-16T00:16:54.609Z,80.90
2024-03-16T00:17:04.032Z,80.80
2024-03-16T00:17:13.430Z,80.80
2024-03-16T00:17:22.855Z,80.90
2024-03-16T00:17:32.304Z,80.90
2024-03-16T00:17:51.117Z,81.00
2024-03-16T00:18:00.510Z,81.00
2024-03-16T00:18:10.029Z,81.10
2024-03-16T00:18:19.409Z,81.20
2024-03-16T00:18:28.888Z,81.20
2024-03-16T00:18:38.305Z,81.20
2024-03-16T00:18:57.151Z,81.20
2024-03-16T00:19:06.669Z,81.20
2024-03-16T00:19:15.984Z,81.20
2024-03-16T00:19:25.326Z,81.20
2024-03-16T00:19:34.709Z,81.20
2024-03-16T00:19:44.118Z,81.20
2024-03-16T00:20:02.946Z,81.10
2024-03-16T00:20:12.360Z,81.10
2024-03-16T00:20:21.829Z,81.20
2024-03-16T00:20:31.225Z,81.30
2024-03-16T00:20:40.647Z,81.30
2024-03-16T00:20:50.028Z,81.30
2024-03-16T00:21:08.891Z,81.30
2024-03-16T00:21:18.307Z,81.40
2024-03-16T00:21:27.816Z,81.40
2024-03-16T00:21:37.111Z,81.40
2024-03-16T00:21:46.549Z,81.40
2024-03-16T00:21:56.164Z,81.40
2024-03-16T00:22:14.787Z,81.40
2024-03-16T00:22:24.117Z,81.40
2024-03-16T00:22:33.549Z,81.40
2024-03-16T00:22:42.954Z,81.50
2024-03-16T00:22:52.359Z,81.50
2024-03-16T00:23:01.772Z,81.50
2024-03-16T00:23:20.565Z,81.40
2024-03-16T00:23:30.030Z,81.50
2024-03-16T00:23:39.463Z,81.40
2024-03-16T00:23:48.849Z,81.40
2024-03-16T00:23:58.295Z,81.40
2024-03-16T00:24:07.720Z,81.40
2024-03-16T00:24:26.547Z,81.40
2024-03-16T00:24:35.966Z,81.50
2024-03-16T00:24:45.376Z,81.50
2024-03-16T00:24:54.848Z,81.50
2024-03-16T00:25:04.375Z,81.50
2024-03-16T00:25:13.721Z,81.60
2024-03-16T00:25:32.442Z,81.60
2024-03-16T00:25:41.875Z,81.60
2024-03-16T00:25:51.321Z,81.60
2024-03-16T00:26:00.747Z,81.50
2024-03-16T00:26:10.129Z,81.50
2024-03-16T00:26:19.591Z,81.50
2024-03-16T00:26:38.380Z,81.50
2024-03-16T00:26:47.774Z,81.50
2024-03-16T00:26:57.193Z,81.50
2024-03-16T00:27:06.621Z,81.50
2024-03-16T00:27:16.018Z,81.50
2024-03-16T00:27:25.457Z,81.60
2024-03-16T00:27:44.294Z,81.60
2024-03-16T00:27:53.737Z,81.60
2024-03-16T00:28:03.099Z,81.60
2024-03-16T00:28:12.536Z,81.60
2024-03-16T00:28:21.842Z,81.60
2024-03-16T00:28:31.217Z,81.60
2024-03-16T00:28:50.015Z,81.70
2024-03-16T00:28:59.432Z,81.70
2024-03-16T00:29:08.853Z,81.70
2024-03-16T00:29:18.342Z,81.60
2024-03-16T00:29:27.734Z,81.60
2024-03-16T00:29:37.161Z,81.50
2024-03-16T00:29:55.965Z,81.40
2024-03-16T00:30:05.376Z,81.30
2024-03-16T00:30:14.781Z,81.30
2024-03-16T00:30:24.181Z,81.40
2024-03-16T00:30:33.600Z,81.40
2024-03-16T00:30:42.989Z,81.30
2024-03-16T00:31:04.416Z,81.40
2024-03-16T00:31:11.278Z,81.40
2024-03-16T00:31:20.629Z,81.40
2024-03-16T00:31:30.048Z,81.50
2024-03-16T00:31:39.436Z,81.50
2024-03-16T00:31:48.884Z,81.40
2024-03-16T00:32:07.757Z,81.50
2024-03-16T00:32:17.132Z,81.50
2024-03-16T00:32:26.666Z,81.50
2024-03-16T00:32:36.049Z,81.50
2024-03-16T00:32:45.453Z,81.50
2024-03-16T00:32:54.832Z,81.50
2024-03-16T00:33:13.718Z,81.50
2024-03-16T00:33:23.156Z,81.40
2024-03-16T00:33:32.474Z,81.40
2024-03-16T00:33:42.046Z,81.30
2024-03-16T00:33:51.452Z,81.30
2024-03-16T00:34:00.841Z,81.30
2024-03-16T00:34:19.638Z,81.30
2024-03-16T00:34:29.024Z,81.20
2024-03-16T00:34:38.400Z,81.30
2024-03-16T00:34:47.793Z,81.20
2024-03-16T00:34:57.183Z,81.20
2024-03-16T00:35:06.649Z,81.30
2024-03-16T00:35:25.527Z,81.40
2024-03-16T00:35:34.911Z,81.50
2024-03-16T00:35:44.310Z,81.50
2024-03-16T00:35:53.791Z,81.50
2024-03-16T00:36:03.103Z,81.50
2024-03-16T00:36:12.539Z,81.50
2024-03-16T00:36:31.454Z,81.60
2024-03-16T00:36:40.839Z,81.70
2024-03-16T00:36:50.281Z,81.70
2024-03-16T00:36:59.695Z,81.70
2024-03-16T00:37:09.096Z,81.70
2024-03-16T00:37:18.453Z,81.70
2024-03-16T00:37:37.306Z,81.70
2024-03-16T00:37:46.697Z,81.70
2024-03-16T00:37:56.098Z,81.70
2024-03-16T00:38:05.462Z,81.70
2024-03-16T00:38:14.887Z,81.70
2024-03-16T00:38:24.274Z,81.70
2024-03-16T00:38:43.091Z,81.70
2024-03-16T00:38:52.484Z,81.60
2024-03-16T00:39:01.872Z,81.60
2024-03-16T00:39:11.282Z,81.60
2024-03-16T00:39:20.680Z,81.60
2024-03-16T00:39:30.155Z,81.60
2024-03-16T00:39:48.988Z,81.80
2024-03-16T00:39:58.396Z,81.80
2024-03-16T00:40:07.843Z,81.80
2024-03-16T00:40:17.223Z,81.80
2024-03-16T00:40:26.543Z,81.80
2024-03-16T00:40:35.944Z,81.80
2024-03-16T00:40:54.755Z,81.80
2024-03-16T00:41:04.192Z,82.00
2024-03-16T00:41:13.588Z,82.00
2024-03-16T00:41:22.993Z,82.10
2024-03-16T00:41:32.420Z,82.10
2024-03-16T00:41:41.828Z,82.10
2024-03-16T00:42:00.685Z,82.10
2024-03-16T00:42:10.078Z,82.10
2024-03-16T00:42:19.492Z,82.00
2024-03-16T00:42:28.939Z,82.10
2024-03-16T00:42:38.335Z,82.10
2024-03-16T00:42:47.766Z,82.10
2024-03-16T00:43:06.588Z,82.00
2024-03-16T00:43:15.946Z,82.10
2024-03-16T00:43:25.327Z,82.10
2024-03-16T00:43:34.704Z,82.00
2024-03-16T00:43:44.132Z,81.90
2024-03-16T00:43:53.567Z,81.90
2024-03-16T00:44:12.350Z,81.90
2024-03-16T00:44:21.856Z,81.90
2024-03-16T00:44:31.294Z,81.80
2024-03-16T00:44:40.681Z,81.80
2024-03-16T00:44:50.092Z,81.90
2024-03-16T00:44:59.470Z,82.00
2024-03-16T00:45:18.314Z,82.00
2024-03-16T00:45:27.744Z,82.00
2024-03-16T00:45:37.124Z,82.00
2024-03-16T00:45:46.566Z,82.00
2024-03-16T00:45:55.975Z,82.10
2024-03-16T00:46:05.372Z,82.10
2024-03-16T00:46:24.173Z,82.20
2024-03-16T00:46:33.579Z,82.20
2024-03-16T00:46:42.988Z,82.20
2024-03-16T00:46:52.384Z,82.30
2024-03-16T00:47:01.789Z,82.20
2024-03-16T00:47:11.177Z,82.30
2024-03-16T00:47:30.034Z,82.20
2024-03-16T00:47:39.431Z,82.20
2024-03-16T00:47:48.859Z,82.10
2024-03-16T00:47:58.201Z,82.00
2024-03-16T00:48:10.384Z,82.00
2024-03-16T00:48:19.775Z,82.10
2024-03-16T00:48:38.666Z,82.00
2024-03-16T00:48:48.021Z,82.00
2024-03-16T00:48:57.394Z,81.90
2024-03-16T00:49:06.873Z,81.80
2024-03-16T00:49:16.224Z,81.80
2024-03-16T00:49:25.622Z,81.90
2024-03-16T00:49:44.357Z,82.00
2024-03-16T00:49:53.745Z,82.00
2024-03-16T00:50:03.151Z,81.90
2024-03-16T00:50:12.539Z,81.90
2024-03-16T00:50:21.998Z,81.80
2024-03-16T00:50:31.389Z,81.70
2024-03-16T00:50:50.222Z,81.70
2024-03-16T00:50:59.614Z,81.60
2024-03-16T00:51:09.042Z,81.60
2024-03-16T00:51:18.453Z,81.60
2024-03-16T00:51:27.866Z,81.70
2024-03-16T00:51:37.266Z,81.70
2024-03-16T00:51:56.099Z,81.80
2024-03-16T00:52:05.527Z,81.80
2024-03-16T00:52:14.895Z,81.80
2024-03-16T00:52:24.279Z,81.90
2024-03-16T00:52:33.686Z,81.80
2024-03-16T00:52:43.075Z,81.80
2024-03-16T00:53:01.956Z,81.80
2024-03-16T00:53:11.425Z,81.80
2024-03-16T00:53:20.835Z,81.80
2024-03-16T00:53:30.227Z,81.80
2024-03-16T00:53:39.616Z,81.80
2024-03-16T00:53:49.033Z,81.80
2024-03-16T00:54:07.837Z,81.80
2024-03-16T00:54:17.266Z,81.80
2024-03-16T00:54:26.677Z,81.80
2024-03-16T00:54:36.097Z,81.80
2024-03-16T00:54:45.573Z,81.70
2024-03-16T00:54:54.961Z,81.70
2024-03-16T00:55:13.814Z,81.70
2024-03-16T00:55:23.154Z,81.60
2024-03-16T00:55:33.093Z,81.70
2024-03-16T00:55:41.997Z,81.60
2024-03-16T00:55:51.495Z,81.60
2024-03-16T00:56:00.881Z,81.70
2024-03-16T00:56:19.811Z,81.60
2024-03-16T00:56:29.195Z,81.60
2024-03-16T00:56:38.613Z,81.60
2024-03-16T00:56:48.051Z,81.60
2024-03-16T00:56:57.444Z,81.70
2024-03-16T00:57:06.848Z,81.70
2024-03-16T00:57:25.749Z,81.70
2024-03-16T00:57:35.050Z,81.80
2024-03-16T00:57:44.557Z,81.80
2024-03-16T00:57:53.942Z,81.80
2024-03-16T00:58:03.358Z,81.70
2024-03-16T00:58:12.755Z,81.70
2024-03-16T00:58:31.550Z,81.80
2024-03-16T00:58:40.951Z,81.80
2024-03-16T00:58:50.328Z,81.90
2024-03-16T00:58:59.740Z,81.90
2024-03-16T00:59:09.184Z,82.00
2024-03-16T00:59:18.544Z,82.00
2024-03-16T00:59:37.378Z,82.20
2024-03-16T00:59:46.900Z,82.20
2024-03-16T00:59:56.309Z,82.30
2024-03-16T01:00:05.759Z,82.20
2024-03-16T01:00:15.221Z,82.30
2024-03-16T01:00:24.620Z,82.40
2024-03-16T01:00:43.479Z,82.30
2024-03-16T01:00:52.865Z,82.40
2024-03-16T01:01:02.257Z,82.40
2024-03-16T01:01:11.658Z,82.50
2024-03-16T01:01:21.167Z,82.50
2024-03-16T01:01:30.551Z,82.60
2024-03-16T01:01:49.366Z,82.60
2024-03-16T01:01:58.768Z,82.60
2024-03-16T01:02:08.113Z,82.60
2024-03-16T01:02:17.526Z,82.50
2024-03-16T01:02:26.919Z,82.60
2024-03-16T01:02:36.331Z,82.60
2024-03-16T01:02:55.163Z,82.60
2024-03-16T01:03:04.550Z,82.60
2024-03-16T01:03:13.952Z,82.60
2024-03-16T01:03:23.630Z,82.70
2024-03-16T01:03:32.961Z,82.70
2024-03-16T01:03:42.355Z,82.80
2024-03-16T01:04:01.277Z,82.70
2024-03-16T01:04:10.597Z,82.70
2024-03-16T01:04:19.954Z,82.70
2024-03-16T01:04:29.350Z,82.80
2024-03-16T01:04:38.772Z,82.80
2024-03-16T01:04:48.176Z,82.90
2024-03-16T01:05:07.092Z,82.80
2024-03-16T01:05:16.498Z,82.70
2024-03-16T01:05:25.892Z,82.70
2024-03-16T01:05:35.306Z,82.70
2024-03-16T01:05:44.710Z,82.70
2024-03-16T01:05:54.134Z,82.60
2024-03-16T01:06:12.926Z,82.70
2024-03-16T01:06:22.364Z,82.60
2024-03-16T01:06:31.865Z,82.60
2024-03-16T01:06:41.264Z,82.80
2024-03-16T01:06:50.666Z,82.80
2024-03-16T01:07:00.068Z,82.80
2024-03-16T01:07:18.880Z,82.80
2024-03-16T01:07:28.265Z,82.80
2024-03-16T01:07:37.651Z,82.90
2024-03-16T01:07:47.070Z,83.00
2024-03-16T01:07:56.532Z,83.00
2024-03-16T01:08:05.926Z,83.00
2024-03-16T01:08:24.763Z,82.90
2024-03-16T01:08:34.149Z,82.90
2024-03-16T01:08:43.551Z,82.80
2024-03-16T01:08:52.947Z,82.70
2024-03-16T01:09:02.352Z,82.70
2024-03-16T01:09:11.766Z,82.70
2024-03-16T01:09:30.616Z,82.80
2024-03-16T01:09:40.013Z,82.70
2024-03-16T01:09:49.495Z,82.70
2024-03-16T01:09:58.884Z,82.80
2024-03-16T01:10:08.331Z,82.80
2024-03-16T01:10:17.663Z,82.70
2024-03-16T01:10:36.419Z,82.80
2024-03-16T01:10:45.827Z,82.90
2024-03-16T01:10:55.313Z,82.90
2024-03-16T01:11:04.665Z,82.90
2024-03-16T01:11:14.049Z,82.80
2024-03-16T01:11:23.547Z,82.90
2024-03-16T01:11:42.299Z,83.10
2024-03-16T01:11:51.709Z,83.00
2024-03-16T01:12:01.104Z,83.00
2024-03-16T01:12:10.517Z,83.10
2024-03-16T01:12:19.965Z,82.90
2024-03-16T01:12:29.437Z,83.10
2024-03-16T01:12:48.214Z,83.20
2024-03-16T01:12:57.639Z,83.20
2024-03-16T01:13:07.028Z,83.20
2024-03-16T01:13:16.401Z,83.00
2024-03-16T01:13:25.775Z,82.90
2024-03-16T01:13:35.171Z,82.90
2024-03-16T01:13:53.940Z,82.90
2024-03-16T01:14:03.344Z,83.00
2024-03-16T01:14:12.816Z,83.00
2024-03-16T01:14:22.229Z,83.10
2024-03-16T01:14:31.621Z,83.10
2024-03-16T01:14:41.020Z,83.10
2024-03-16T01:14:59.825Z,83.00
2024-03-16T01:15:09.222Z,82.90
2024-03-16T01:15:18.691Z,82.90
2024-03-16T01:15:28.088Z,83.00
2024-03-16T01:15:37.495Z,83.10
2024-03-16T01:15:46.892Z,83.10
2024-03-16T01:16:05.829Z,83.10
2024-03-16T01:16:15.143Z,83.00
2024-03-16T01:16:24.493Z,83.00
2024-03-16T01:16:33.899Z,83.00
2024-03-16T01:16:43.301Z,83.00
2024-03-16T01:16:52.695Z,83.10
2024-03-16T01:17:11.521Z,83.10
2024-03-16T01:17:20.917Z,83.10
2024-03-16T01:17:30.412Z,83.00
2024-03-16T01:17:39.822Z,82.90
2024-03-16T01:17:49.373Z,83.00
2024-03-16T01:17:58.705Z,83.10
2024-03-16T01:18:17.478Z,83.20
2024-03-16T01:18:27.418Z,83.30
2024-03-16T01:18:36.771Z,83.30
2024-03-16T01:18:46.229Z,83.40
2024-03-16T01:18:55.633Z,83.40
2024-03-16T01:19:05.255Z,83.50
2024-03-16T01:19:23.807Z,83.40
2024-03-16T01:19:33.205Z,83.50
2024-03-16T01:19:42.625Z,83.60
2024-03-16T01:19:52.015Z,83.60
2024-03-16T01:20:01.454Z,83.60
2024-03-16T01:20:10.854Z,83.60
2024-03-16T01:20:29.659Z,83.50
2024-03-16T01:20:39.141Z,83.60
2024-03-16T01:20:48.546Z,83.50
2024-03-16T01:20:57.935Z,83.50
2024-03-16T01:21:07.407Z,83.50
2024-03-16T01:21:16.792Z,83.40
2024-03-16T01:21:35.690Z,83.30
2024-03-16T01:21:45.136Z,83.30
2024-03-16T01:21:54.458Z,83.30
2024-03-16T01:22:03.979Z,83.40
2024-03-16T01:22:13.353Z,83.40
2024-03-16T01:22:22.706Z,83.30
2024-03-16T01:22:41.545Z,83.20
2024-03-16T01:22:50.964Z,83.20
2024-03-16T01:23:00.356Z,83.20
2024-03-16T01:23:09.768Z,83.10
2024-03-16T01:23:19.176Z,83.20
2024-03-16T01:23:28.618Z,83.30
2024-03-16T01:23:47.376Z,83.30
2024-03-16T01:23:56.760Z,83.30
2024-03-16T01:24:06.155Z,83.20
2024-03-16T01:24:15.554Z,83.40
2024-03-16T01:24:24.969Z,83.40
2024-03-16T01:24:34.381Z,83.40
2024-03-16T01:24:53.226Z,83.30
2024-03-16T01:25:02.625Z,83.40
2024-03-16T01:25:12.025Z,83.30
2024-03-16T01:25:21.389Z,83.30
2024-03-16T01:25:30.810Z,83.20
2024-03-16T01:25:40.232Z,83.10
2024-03-16T01:25:59.061Z,83.10
2024-03-16T01:26:08.462Z,83.10
2024-03-16T01:26:17.912Z,83.20
2024-03-16T01:26:27.370Z,83.20
2024-03-16T01:26:36.912Z,83.20
2024-03-16T01:26:46.319Z,83.20
2024-03-16T01:27:05.094Z,83.10
2024-03-16T01:27:14.510Z,83.10
2024-03-16T01:27:24.028Z,83.00
2024-03-16T01:27:33.362Z,83.00
2024-03-16T01:27:42.838Z,83.00
2024-03-16T01:27:52.221Z,83.10
2024-03-16T01:28:11.107Z,83.10
2024-03-16T01:28:20.418Z,83.20
2024-03-16T01:28:29.831Z,83.20
2024-03-16T01:28:39.252Z,83.20
2024-03-16T01:28:48.618Z,83.20
2024-03-16T01:28:57.991Z,83.10
2024-03-16T01:29:16.832Z,82.90
2024-03-16T01:29:26.216Z,82.90
2024-03-16T01:29:35.671Z,82.80
2024-03-16T01:29:45.062Z,82.70
2024-03-16T01:29:54.475Z,82.80
2024-03-16T01:30:03.900Z,82.70
2024-03-16T01:30:22.721Z,82.80
2024-03-16T01:30:32.056Z,82.80
2024-03-16T01:30:41.480Z,82.80
2024-03-16T01:30:50.917Z,82.70
2024-03-16T01:31:00.478Z,82.60
2024-03-16T01:31:11.129Z,82.70
2024-03-16T01:31:28.535Z,82.60
2024-03-16T01:31:37.941Z,82.70
2024-03-16T01:31:47.334Z,82.70
2024-03-16T01:31:56.731Z,82.60
2024-03-16T01:32:06.122Z,82.60
2024-03-16T01:32:15.564Z,82.60
2024-03-16T01:32:34.372Z,82.60
2024-03-16T01:32:43.779Z,82.60
2024-03-16T01:32:53.175Z,82.60
2024-03-16T01:33:02.642Z,82.60
2024-03-16T01:33:12.013Z,82.60
2024-03-16T01:33:21.390Z,82.60
2024-03-16T01:33:40.228Z,82.60
2024-03-16T01:33:49.662Z,82.60
2024-03-16T01:33:59.036Z,82.60
2024-03-16T01:34:08.430Z,82.60
2024-03-16T01:34:17.856Z,82.70
2024-03-16T01:34:27.223Z,82.70
2024-03-16T01:34:46.047Z,82.70
2024-03-16T01:34:55.480Z,82.70
2024-03-16T01:35:04.883Z,82.50
2024-03-16T01:35:14.305Z,82.50
2024-03-16T01:35:23.712Z,82.50
2024-03-16T01:35:33.073Z,82.50
2024-03-16T01:35:51.872Z,82.50
2024-03-16T01:36:01.330Z,82.50
2024-03-16T01:36:10.736Z,82.60
2024-03-16T01:36:20.129Z,82.70
2024-03-16T01:36:29.544Z,82.70
2024-03-16T01:36:38.976Z,82.70
2024-03-16T01:36:57.769Z,82.60
2024-03-16T01:37:07.131Z,82.50
2024-03-16T01:37:16.578Z,82.50
2024-03-16T01:37:26.075Z,82.50
2024-03-16T01:37:35.418Z,82.50
2024-03-16T01:37:44.816Z,82.50
2024-03-16T01:38:03.606Z,82.30
2024-03-16T01:38:16.424Z,82.30
2024-03-16T01:38:22.954Z,82.30
2024-03-16T01:38:32.355Z,82.20
2024-03-16T01:38:41.791Z,82.20
2024-03-16T01:38:51.156Z,82.10
2024-03-16T01:39:09.974Z,82.00
2024-03-16T01:39:19.344Z,82.00
2024-03-16T01:39:28.730Z,82.00
2024-03-16T01:39:38.134Z,82.00
2024-03-16T01:39:47.522Z,81.90
2024-03-16T01:39:57.144Z,82.00
2024-03-16T01:40:15.759Z,81.90
2024-03-16T01:40:25.111Z,81.80
2024-03-16T01:40:34.520Z,81.90
2024-03-16T01:40:43.915Z,81.90
2024-03-16T01:40:53.327Z,81.90
2024-03-16T01:41:02.725Z,81.80
2024-03-16T01:41:21.518Z,81.90
2024-03-16T01:41:30.961Z,81.90
2024-03-16T01:41:40.375Z,82.00
2024-03-16T01:41:49.751Z,82.00
2024-03-16T01:41:59.179Z,82.00
2024-03-16T01:42:08.634Z,82.00
2024-03-16T01:42:27.490Z,82.00
2024-03-16T01:42:36.892Z,82.10
2024-03-16T01:42:46.301Z,82.10
2024-03-16T01:42:55.756Z,82.20
2024-03-16T01:43:05.116Z,82.20
2024-03-16T01:43:14.512Z,82.10
2024-03-16T01:43:33.258Z,82.30
2024-03-16T01:43:42.667Z,82.30
2024-03-16T01:43:52.073Z,82.30
2024-03-16T01:44:01.461Z,82.20
2024-03-16T01:44:10.904Z,82.20
2024-03-16T01:44:20.291Z,82.10
2024-03-16T01:44:39.078Z,82.10
2024-03-16T01:44:48.488Z,82.10
2024-03-16T01:44:57.946Z,82.20
2024-03-16T01:45:07.357Z,82.20
2024-03-16T01:45:16.752Z,82.20
2024-03-16T01:45:26.207Z,82.30
2024-03-16T01:45:45.044Z,82.20
2024-03-16T01:45:54.359Z,82.20
2024-03-16T01:46:03.801Z,82.20
2024-03-16T01:46:13.209Z,82.20
2024-03-16T01:46:22.561Z,82.20
2024-03-16T01:46:31.979Z,82.20
2024-03-16T01:46:50.798Z,82.20
2024-03-16T01:47:00.194Z,82.20
2024-03-16T01:47:09.611Z,82.10
2024-03-16T01:47:19.024Z,82.10
2024-03-16T01:47:28.438Z,82.20
2024-03-16T01:47:37.870Z,82.20
2024-03-16T01:47:56.903Z,82.20
2024-03-16T01:48:06.012Z,82.20
2024-03-16T01:48:17.806Z,82.40
2024-03-16T01:48:27.237Z,82.40
2024-03-16T01:48:36.604Z,82.40
2024-03-16T01:48:46.020Z,82.40
2024-03-16T01:49:04.884Z,82.20
2024-03-16T01:49:14.187Z,82.40
2024-03-16T01:49:23.581Z,82.30
2024-03-16T01:49:32.957Z,82.40
2024-03-16T01:49:42.384Z,82.20
2024-03-16T01:49:51.763Z,82.40
2024-03-16T01:50:10.577Z,82.40
2024-03-16T01:50:19.974Z,82.40
2024-03-16T01:50:29.405Z,82.40
2024-03-16T01:50:38.818Z,82.30
2024-03-16T01:50:48.222Z,82.40
2024-03-16T01:50:57.621Z,82.50
2024-03-16T01:51:16.457Z,82.40
2024-03-16T01:51:25.907Z,82.40
2024-03-16T01:51:35.301Z,82.40
2024-03-16T01:51:44.675Z,82.40
2024-03-16T01:51:54.124Z,82.40
2024-03-16T01:52:03.583Z,82.30
2024-03-16T01:52:22.369Z,82.50
2024-03-16T01:52:31.781Z,82.60
2024-03-16T01:52:41.171Z,82.60
2024-03-16T01:52:50.570Z,82.70
2024-03-16T01:52:59.987Z,82.80
2024-03-16T01:53:09.387Z,82.90
2024-03-16T01:53:28.169Z,83.20
2024-03-16T01:53:37.603Z,83.30
2024-03-16T01:53:47.020Z,83.50
2024-03-16T01:53:56.402Z,83.60
2024-03-16T01:54:05.808Z,83.70
2024-03-16T01:54:15.223Z,83.90
2024-03-16T01:54:34.020Z,84.20
2024-03-16T01:54:43.405Z,84.30
2024-03-16T01:54:52.826Z,84.50
2024-03-16T01:55:02.327Z,84.70
2024-03-16T01:55:11.719Z,84.80
2024-03-16T01:55:21.084Z,85.00
2024-03-16T01:55:39.922Z,85.50
2024-03-16T01:55:49.315Z,85.60
2024-03-16T01:55:58.685Z,85.80
2024-03-16T01:56:08.076Z,86.00
2024-03-16T01:56:17.465Z,86.20
2024-03-16T01:56:26.906Z,86.40
2024-03-16T01:56:45.732Z,86.90
2024-03-16T01:56:55.138Z,87.00
2024-03-16T01:57:04.555Z,87.10
2024-03-16T01:57:14.018Z,87.20
2024-03-16T01:57:23.403Z,87.50
2024-03-16T01:57:32.875Z,87.70
2024-03-16T01:57:51.861Z,88.00
2024-03-16T01:58:01.138Z,88.30
2024-03-16T01:58:10.556Z,88.60
2024-03-16T01:58:19.986Z,88.60
2024-03-16T01:58:29.374Z,88.90
2024-03-16T01:58:38.798Z,89.10
2024-03-16T01:58:57.615Z,89.50
2024-03-16T01:59:07.032Z,89.80
2024-03-16T01:59:16.489Z,90.00
2024-03-16T01:59:25.893Z,90.00
2024-03-16T01:59:35.325Z,90.20
2024-03-16T01:59:44.738Z,90.20
2024-03-16T02:00:03.603Z,90.40
2024-03-16T02:00:13.407Z,90.50
2024-03-16T02:00:22.386Z,90.60
2024-03-16T02:00:31.922Z,90.70
2024-03-16T02:00:41.272Z,90.80
2024-03-16T02:00:50.797Z,90.80
2024-03-16T02:01:09.611Z,90.90
2024-03-16T02:01:19.016Z,90.90
2024-03-16T02:01:28.372Z,91.00
2024-03-16T02:01:37.754Z,91.10
2024-03-16T02:01:47.210Z,91.10
2024-03-16T02:01:56.577Z,91.30
2024-03-16T02:02:15.321Z,91.40
2024-03-16T02:02:24.721Z,91.50
2024-03-16T02:02:34.116Z,91.70
2024-03-16T02:02:43.529Z,91.80
2024-03-16T02:02:52.953Z,91.90
2024-03-16T02:03:02.371Z,91.90
2024-03-16T02:03:21.150Z,92.00
2024-03-16T02:03:30.570Z,92.10
2024-03-16T02:03:39.947Z,92.10
2024-03-16T02:03:49.360Z,92.10
2024-03-16T02:03:58.862Z,92.00
2024-03-16T02:04:08.255Z,92.00
2024-03-16T02:04:26.982Z,92.00
2024-03-16T02:04:36.438Z,92.00
2024-03-16T02:04:45.786Z,92.00
2024-03-16T02:04:55.185Z,92.00
2024-03-16T02:05:04.626Z,92.00
2024-03-16T02:05:14.016Z,92.10
2024-03-16T02:05:32.831Z,92.00
2024-03-16T02:05:42.231Z,92.00
2024-03-16T02:05:51.651Z,91.90
2024-03-16T02:06:01.032Z,91.80
2024-03-16T02:06:10.413Z,91.70
2024-03-16T02:06:19.810Z,91.60
2024-03-16T02:06:38.723Z,91.50
2024-03-16T02:06:48.048Z,91.40
2024-03-16T02:06:57.453Z,91.40
2024-03-16T02:07:06.891Z,91.30
2024-03-16T02:07:16.218Z,91.20
2024-03-16T02:07:25.621Z,91.20
2024-03-16T02:07:44.423Z,91.10
2024-03-16T02:07:53.921Z,91.00
2024-03-16T02:08:03.228Z,90.90
2024-03-16T02:08:12.674Z,90.90
2024-03-16T02:08:21.992Z,90.80
2024-03-16T02:08:31.436Z,90.70
2024-03-16T02:08:50.261Z,90.70
2024-03-16T02:08:59.676Z,90.60
2024-03-16T02:09:09.081Z,90.50
2024-03-16T02:09:18.480Z,90.40
2024-03-16T02:09:27.917Z,90.20
2024-03-16T02:09:37.335Z,90.10
2024-03-16T02:09:56.286Z,90.00
2024-03-16T02:10:05.932Z,89.90
2024-03-16T02:10:15.101Z,89.70
2024-03-16T02:10:24.468Z,89.60
2024-03-16T02:10:33.906Z,89.40
2024-03-16T02:10:43.333Z,89.30
2024-03-16T02:11:02.140Z,89.30
2024-03-16T02:11:11.584Z,89.20
2024-03-16T02:11:20.975Z,89.10
2024-03-16T02:11:30.427Z,89.10
2024-03-16T02:11:39.822Z,89.10
2024-03-16T02:11:49.221Z,89.10
2024-03-16T02:12:08.020Z,88.70
2024-03-16T02:12:17.406Z,88.60
2024-03-16T02:12:26.831Z,88.30
2024-03-16T02:12:36.239Z,88.20
2024-03-16T02:12:45.643Z,88.10
2024-03-16T02:12:55.032Z,87.90
2024-03-16T02:13:13.851Z,87.70
2024-03-16T02:13:23.191Z,87.60
2024-03-16T02:13:32.600Z,87.50
2024-03-16T02:13:42.000Z,87.50
2024-03-16T02:13:51.451Z,87.50
2024-03-16T02:14:00.842Z,87.50
2024-03-16T02:14:19.637Z,87.30
2024-03-16T02:14:29.021Z,87.30
2024-03-16T02:14:38.427Z,87.20
2024-03-16T02:14:47.826Z,87.20
2024-03-16T02:14:57.220Z,87.20
2024-03-16T02:15:06.619Z,87.20
2024-03-16T02:15:25.503Z,87.00
2024-03-16T02:15:34.965Z,86.90
2024-03-16T02:15:44.305Z,86.90
2024-03-16T02:15:53.675Z,86.80
2024-03-16T02:16:03.059Z,86.80
2024-03-16T02:16:12.523Z,86.80
2024-03-16T02:16:31.310Z,86.60
2024-03-16T02:16:40.698Z,86.60
2024-03-16T02:16:50.109Z,86.60
2024-03-16T02:16:59.507Z,86.30
2024-03-16T02:17:08.909Z,86.20
2024-03-16T02:17:18.291Z,86.20
2024-03-16T02:17:37.123Z,85.80
2024-03-16T02:17:46.536Z,85.60
2024-03-16T02:17:55.957Z,85.50
2024-03-16T02:18:05.387Z,85.40
2024-03-16T02:18:14.775Z,85.50
2024-03-16T02:18:24.169Z,85.40
2024-03-16T02:18:42.951Z,85.40
2024-03-16T02:18:52.413Z,85.20
2024-03-16T02:19:01.823Z,85.20
2024-03-16T02:19:11.261Z,85.20
2024-03-16T02:19:20.593Z,85.10
2024-03-16T02:19:30.016Z,85.10
2024-03-16T02:19:48.830Z,85.00
2024-03-16T02:19:58.229Z,84.90
2024-03-16T02:20:07.618Z,84.80
2024-03-16T02:20:17.463Z,84.70
2024-03-16T02:20:26.410Z,84.70
2024-03-16T02:20:35.793Z,84.70
2024-03-16T02:20:55.168Z,84.80
2024-03-16T02:21:04.575Z,84.70
2024-03-16T02:21:13.992Z,84.70
2024-03-16T02:21:23.395Z,84.70
2024-03-16T02:21:32.873Z,84.70